sensor_id;sensor_type;location;lat;lon;timestamp;P1;durP1;ratioP1;P2;durP2;ratioP2
8502;SDS011;4289;48.664;12.700;2023-02-22T00:02:08;0.10;;;0.10;;
8502;SDS011;4289;48.664;12.700;2023-02-22T00:05:45;0.10;;;0.10;;
8502;SDS011;4289;48.664;12.700;2023-02-22T00:09:10;0.10;;;0.10;;
8502;SDS011;4289;48.664;12.700;2023-02-22T00:12:40;0.10;;;0.10;;
8502;SDS011;4289;48.664;12.700;2023-02-22T00:16:03;0.00;;;0.00;;
8502;SDS011;4289;48.664;12.700;2023-02-22T00:19:27;0.00;;;0.00;;
8502;SDS011;4289;48.664;12.700;2023-02-22T00:22:50;0.10;;;0.10;;
8502;SDS011;4289;48.664;12.700;2023-02-22T00:26:13;0.10;;;0.10;;
8502;SDS011;4289;48.664;12.700;2023-02-22T00:29:37;0.10;;;0.10;;
8502;SDS011;4289;48.664;12.700;2023-02-22T00:33:05;0.00;;;0.00;;
8502;SDS011;4289;48.664;12.700;2023-02-22T00:36:29;0.10;;;0.10;;
8502;SDS011;4289;48.664;12.700;2023-02-22T00:39:51;0.10;;;0.10;;
8502;SDS011;4289;48.664;12.700;2023-02-22T00:43:13;0.10;;;0.10;;
8502;SDS011;4289;48.664;12.700;2023-02-22T00:46:36;0.10;;;0.10;;
8502;SDS011;4289;48.664;12.700;2023-02-22T00:49:59;0.10;;;0.10;;
8502;SDS011;4289;48.664;12.700;2023-02-22T00:53:23;0.00;;;0.00;;
8502;SDS011;4289;48.664;12.700;2023-02-22T00:56:46;0.10;;;0.10;;
8502;SDS011;4289;48.664;12.700;2023-02-22T01:00:14;0.10;;;0.10;;
8502;SDS011;4289;48.664;12.700;2023-02-22T01:03:39;0.10;;;0.10;;
8502;SDS011;4289;48.664;12.700;2023-02-22T01:07:01;0.10;;;0.10;;
8502;SDS011;4289;48.664;12.700;2023-02-22T01:10:26;0.10;;;0.10;;
8502;SDS011;4289;48.664;12.700;2023-02-22T01:13:50;0.10;;;0.10;;
8502;SDS011;4289;48.664;12.700;2023-02-22T01:17:13;0.10;;;0.10;;
8502;SDS011;4289;48.664;12.700;2023-02-22T01:20:35;0.10;;;0.10;;
8502;SDS011;4289;48.664;12.700;2023-02-22T01:23:58;0.10;;;0.10;;
8502;SDS011;4289;48.664;12.700;2023-02-22T01:27:22;0.10;;;0.10;;
8502;SDS011;4289;48.664;12.700;2023-02-22T01:30:44;0.10;;;0.10;;
8502;SDS011;4289;48.664;12.700;2023-02-22T01:34:07;0.10;;;0.10;;
8502;SDS011;4289;48.664;12.700;2023-02-22T01:37:29;0.10;;;0.10;;
8502;SDS011;4289;48.664;12.700;2023-02-22T01:40:52;0.10;;;0.10;;
8502;SDS011;4289;48.664;12.700;2023-02-22T01:44:29;0.10;;;0.10;;
8502;SDS011;4289;48.664;12.700;2023-02-22T01:47:52;0.10;;;0.10;;
8502;SDS011;4289;48.664;12.700;2023-02-22T01:51:15;0.10;;;0.10;;
8502;SDS011;4289;48.664;12.700;2023-02-22T01:54:40;0.10;;;0.10;;
8502;SDS011;4289;48.664;12.700;2023-02-22T01:58:05;0.10;;;0.10;;
8502;SDS011;4289;48.664;12.700;2023-02-22T02:01:29;0.10;;;0.10;;
8502;SDS011;4289;48.664;12.700;2023-02-22T02:04:52;0.10;;;0.10;;
8502;SDS011;4289;48.664;12.700;2023-02-22T02:08:19;0.10;;;0.10;;
8502;SDS011;4289;48.664;12.700;2023-02-22T02:11:45;0.10;;;0.10;;
8502;SDS011;4289;48.664;12.700;2023-02-22T02:18:51;0.10;;;0.10;;
8502;SDS011;4289;48.664;12.700;2023-02-22T02:22:36;0.10;;;0.10;;
8502;SDS011;4289;48.664;12.700;2023-02-22T02:26:17;0.00;;;0.00;;
8502;SDS011;4289;48.664;12.700;2023-02-22T02:34:04;0.20;;;0.20;;
8502;SDS011;4289;48.664;12.700;2023-02-22T02:37:32;0.20;;;0.20;;
8502;SDS011;4289;48.664;12.700;2023-02-22T02:40:59;0.20;;;0.20;;
8502;SDS011;4289;48.664;12.700;2023-02-22T02:44:26;0.10;;;0.10;;
8502;SDS011;4289;48.664;12.700;2023-02-22T02:47:52;0.10;;;0.10;;
8502;SDS011;4289;48.664;12.700;2023-02-22T02:51:21;0.10;;;0.10;;
8502;SDS011;4289;48.664;12.700;2023-02-22T02:54:44;0.10;;;0.10;;
8502;SDS011;4289;48.664;12.700;2023-02-22T02:58:07;0.10;;;0.10;;
8502;SDS011;4289;48.664;12.700;2023-02-22T03:01:39;0.10;;;0.10;;
8502;SDS011;4289;48.664;12.700;2023-02-22T03:05:13;0.10;;;0.10;;
8502;SDS011;4289;48.664;12.700;2023-02-22T03:08:58;0.10;;;0.10;;
8502;SDS011;4289;48.664;12.700;2023-02-22T03:12:28;0.20;;;0.20;;
8502;SDS011;4289;48.664;12.700;2023-02-22T03:16:13;0.10;;;0.10;;
8502;SDS011;4289;48.664;12.700;2023-02-22T03:19:39;0.10;;;0.10;;
8502;SDS011;4289;48.664;12.700;2023-02-22T03:23:06;0.10;;;0.10;;
8502;SDS011;4289;48.664;12.700;2023-02-22T03:26:37;0.10;;;0.10;;
8502;SDS011;4289;48.664;12.700;2023-02-22T03:30:03;0.10;;;0.10;;
8502;SDS011;4289;48.664;12.700;2023-02-22T03:33:29;0.00;;;0.00;;
8502;SDS011;4289;48.664;12.700;2023-02-22T03:36:56;0.10;;;0.10;;
8502;SDS011;4289;48.664;12.700;2023-02-22T03:40:22;0.10;;;0.10;;
8502;SDS011;4289;48.664;12.700;2023-02-22T03:43:50;0.10;;;0.10;;
8502;SDS011;4289;48.664;12.700;2023-02-22T03:47:17;0.10;;;0.10;;
8502;SDS011;4289;48.664;12.700;2023-02-22T03:50:42;0.10;;;0.10;;
8502;SDS011;4289;48.664;12.700;2023-02-22T03:54:04;0.10;;;0.10;;
8502;SDS011;4289;48.664;12.700;2023-02-22T03:57:28;0.10;;;0.10;;
8502;SDS011;4289;48.664;12.700;2023-02-22T04:00:56;0.10;;;0.10;;
8502;SDS011;4289;48.664;12.700;2023-02-22T04:04:18;0.10;;;0.10;;
8502;SDS011;4289;48.664;12.700;2023-02-22T04:07:42;0.10;;;0.10;;
8502;SDS011;4289;48.664;12.700;2023-02-22T04:11:05;0.10;;;0.10;;
8502;SDS011;4289;48.664;12.700;2023-02-22T04:14:27;0.10;;;0.10;;
8502;SDS011;4289;48.664;12.700;2023-02-22T04:17:51;0.20;;;0.20;;
8502;SDS011;4289;48.664;12.700;2023-02-22T04:21:14;0.10;;;0.10;;
8502;SDS011;4289;48.664;12.700;2023-02-22T04:24:37;0.17;;;0.17;;
8502;SDS011;4289;48.664;12.700;2023-02-22T04:27:59;0.10;;;0.10;;
8502;SDS011;4289;48.664;12.700;2023-02-22T04:31:21;0.10;;;0.10;;
8502;SDS011;4289;48.664;12.700;2023-02-22T04:34:45;0.10;;;0.10;;
8502;SDS011;4289;48.664;12.700;2023-02-22T04:38:08;0.10;;;0.10;;
8502;SDS011;4289;48.664;12.700;2023-02-22T04:41:31;0.10;;;0.10;;
8502;SDS011;4289;48.664;12.700;2023-02-22T04:44:53;0.10;;;0.10;;
8502;SDS011;4289;48.664;12.700;2023-02-22T04:48:16;0.10;;;0.10;;
8502;SDS011;4289;48.664;12.700;2023-02-22T04:51:40;0.10;;;0.10;;
8502;SDS011;4289;48.664;12.700;2023-02-22T04:55:03;0.10;;;0.10;;
8502;SDS011;4289;48.664;12.700;2023-02-22T04:58:26;0.10;;;0.10;;
8502;SDS011;4289;48.664;12.700;2023-02-22T05:01:49;0.10;;;0.10;;
8502;SDS011;4289;48.664;12.700;2023-02-22T05:05:12;0.10;;;0.10;;
8502;SDS011;4289;48.664;12.700;2023-02-22T05:08:37;0.10;;;0.10;;
8502;SDS011;4289;48.664;12.700;2023-02-22T05:11:59;0.10;;;0.10;;
8502;SDS011;4289;48.664;12.700;2023-02-22T05:15:22;0.10;;;0.10;;
8502;SDS011;4289;48.664;12.700;2023-02-22T05:18:44;0.10;;;0.10;;
8502;SDS011;4289;48.664;12.700;2023-02-22T05:22:07;0.10;;;0.10;;
8502;SDS011;4289;48.664;12.700;2023-02-22T05:25:31;0.10;;;0.10;;
8502;SDS011;4289;48.664;12.700;2023-02-22T05:28:53;0.10;;;0.10;;
8502;SDS011;4289;48.664;12.700;2023-02-22T05:32:15;0.17;;;0.17;;
8502;SDS011;4289;48.664;12.700;2023-02-22T05:35:38;0.10;;;0.10;;
8502;SDS011;4289;48.664;12.700;2023-02-22T05:39:00;0.10;;;0.10;;
8502;SDS011;4289;48.664;12.700;2023-02-22T05:42:25;0.10;;;0.10;;
8502;SDS011;4289;48.664;12.700;2023-02-22T05:45:51;0.10;;;0.10;;
8502;SDS011;4289;48.664;12.700;2023-02-22T05:49:14;0.10;;;0.10;;
8502;SDS011;4289;48.664;12.700;2023-02-22T05:52:37;0.10;;;0.10;;
8502;SDS011;4289;48.664;12.700;2023-02-22T05:55:59;0.10;;;0.10;;
8502;SDS011;4289;48.664;12.700;2023-02-22T05:59:23;0.10;;;0.10;;
8502;SDS011;4289;48.664;12.700;2023-02-22T06:02:46;0.10;;;0.10;;
8502;SDS011;4289;48.664;12.700;2023-02-22T06:06:13;0.10;;;0.10;;
8502;SDS011;4289;48.664;12.700;2023-02-22T06:09:36;0.10;;;0.10;;
8502;SDS011;4289;48.664;12.700;2023-02-22T06:12:59;0.00;;;0.00;;
8502;SDS011;4289;48.664;12.700;2023-02-22T06:16:24;0.10;;;0.10;;
8502;SDS011;4289;48.664;12.700;2023-02-22T06:19:46;0.10;;;0.10;;
8502;SDS011;4289;48.664;12.700;2023-02-22T06:23:09;0.10;;;0.10;;
8502;SDS011;4289;48.664;12.700;2023-02-22T06:26:32;0.10;;;0.10;;
8502;SDS011;4289;48.664;12.700;2023-02-22T06:29:55;0.10;;;0.10;;
8502;SDS011;4289;48.664;12.700;2023-02-22T06:33:19;0.10;;;0.10;;
8502;SDS011;4289;48.664;12.700;2023-02-22T06:36:41;0.10;;;0.10;;
8502;SDS011;4289;48.664;12.700;2023-02-22T06:40:03;0.10;;;0.10;;
8502;SDS011;4289;48.664;12.700;2023-02-22T06:43:26;0.10;;;0.10;;
8502;SDS011;4289;48.664;12.700;2023-02-22T06:46:49;0.10;;;0.10;;
8502;SDS011;4289;48.664;12.700;2023-02-22T06:50:18;0.10;;;0.10;;
8502;SDS011;4289;48.664;12.700;2023-02-22T06:53:42;0.10;;;0.10;;
8502;SDS011;4289;48.664;12.700;2023-02-22T06:57:05;0.10;;;0.10;;
8502;SDS011;4289;48.664;12.700;2023-02-22T07:00:29;0.10;;;0.10;;
8502;SDS011;4289;48.664;12.700;2023-02-22T07:03:52;0.10;;;0.10;;
8502;SDS011;4289;48.664;12.700;2023-02-22T07:07:17;0.10;;;0.10;;
8502;SDS011;4289;48.664;12.700;2023-02-22T07:10:41;0.10;;;0.10;;
8502;SDS011;4289;48.664;12.700;2023-02-22T07:14:03;0.10;;;0.10;;
8502;SDS011;4289;48.664;12.700;2023-02-22T07:17:26;0.10;;;0.10;;
8502;SDS011;4289;48.664;12.700;2023-02-22T07:20:48;0.10;;;0.10;;
8502;SDS011;4289;48.664;12.700;2023-02-22T07:24:12;0.10;;;0.10;;
8502;SDS011;4289;48.664;12.700;2023-02-22T07:27:35;0.10;;;0.10;;
8502;SDS011;4289;48.664;12.700;2023-02-22T07:30:58;0.10;;;0.10;;
8502;SDS011;4289;48.664;12.700;2023-02-22T07:34:21;0.10;;;0.10;;
8502;SDS011;4289;48.664;12.700;2023-02-22T07:37:45;0.00;;;0.00;;
8502;SDS011;4289;48.664;12.700;2023-02-22T07:41:10;0.10;;;0.10;;
8502;SDS011;4289;48.664;12.700;2023-02-22T07:44:32;0.10;;;0.10;;
8502;SDS011;4289;48.664;12.700;2023-02-22T07:47:54;0.10;;;0.10;;
8502;SDS011;4289;48.664;12.700;2023-02-22T07:51:17;0.10;;;0.10;;
8502;SDS011;4289;48.664;12.700;2023-02-22T07:54:39;0.10;;;0.10;;
8502;SDS011;4289;48.664;12.700;2023-02-22T07:58:04;0.10;;;0.10;;
8502;SDS011;4289;48.664;12.700;2023-02-22T08:01:29;0.10;;;0.10;;
8502;SDS011;4289;48.664;12.700;2023-02-22T08:04:53;0.10;;;0.10;;
8502;SDS011;4289;48.664;12.700;2023-02-22T08:08:16;0.10;;;0.10;;
8502;SDS011;4289;48.664;12.700;2023-02-22T08:11:38;0.10;;;0.10;;
8502;SDS011;4289;48.664;12.700;2023-02-22T08:15:03;0.10;;;0.10;;
8502;SDS011;4289;48.664;12.700;2023-02-22T08:18:27;0.10;;;0.10;;
8502;SDS011;4289;48.664;12.700;2023-02-22T08:21:49;0.10;;;0.10;;
8502;SDS011;4289;48.664;12.700;2023-02-22T08:25:13;0.10;;;0.10;;
8502;SDS011;4289;48.664;12.700;2023-02-22T08:28:36;0.10;;;0.10;;
8502;SDS011;4289;48.664;12.700;2023-02-22T08:32:00;0.10;;;0.10;;
8502;SDS011;4289;48.664;12.700;2023-02-22T08:35:23;0.10;;;0.10;;
8502;SDS011;4289;48.664;12.700;2023-02-22T08:38:46;0.10;;;0.10;;
8502;SDS011;4289;48.664;12.700;2023-02-22T08:42:10;0.10;;;0.10;;
8502;SDS011;4289;48.664;12.700;2023-02-22T08:45:32;0.10;;;0.10;;
8502;SDS011;4289;48.664;12.700;2023-02-22T08:48:57;0.10;;;0.10;;
8502;SDS011;4289;48.664;12.700;2023-02-22T08:52:20;0.10;;;0.10;;
8502;SDS011;4289;48.664;12.700;2023-02-22T08:55:42;0.10;;;0.10;;
8502;SDS011;4289;48.664;12.700;2023-02-22T08:59:05;0.10;;;0.10;;
8502;SDS011;4289;48.664;12.700;2023-02-22T09:02:28;0.10;;;0.10;;
8502;SDS011;4289;48.664;12.700;2023-02-22T09:05:51;0.03;;;0.03;;
8502;SDS011;4289;48.664;12.700;2023-02-22T09:09:16;0.10;;;0.10;;
8502;SDS011;4289;48.664;12.700;2023-02-22T09:12:40;0.10;;;0.10;;
8502;SDS011;4289;48.664;12.700;2023-02-22T09:16:03;0.10;;;0.10;;
8502;SDS011;4289;48.664;12.700;2023-02-22T09:19:26;0.10;;;0.10;;
8502;SDS011;4289;48.664;12.700;2023-02-22T09:22:51;0.10;;;0.10;;
8502;SDS011;4289;48.664;12.700;2023-02-22T09:26:15;0.10;;;0.10;;
8502;SDS011;4289;48.664;12.700;2023-02-22T09:29:38;0.10;;;0.10;;
8502;SDS011;4289;48.664;12.700;2023-02-22T09:33:01;0.10;;;0.10;;
8502;SDS011;4289;48.664;12.700;2023-02-22T09:36:24;0.03;;;0.03;;
8502;SDS011;4289;48.664;12.700;2023-02-22T09:40:00;0.10;;;0.10;;
8502;SDS011;4289;48.664;12.700;2023-02-22T09:43:37;0.00;;;0.00;;
8502;SDS011;4289;48.664;12.700;2023-02-22T09:47:09;0.00;;;0.00;;
8502;SDS011;4289;48.664;12.700;2023-02-22T09:50:42;0.00;;;0.00;;
8502;SDS011;4289;48.664;12.700;2023-02-22T09:54:09;0.00;;;0.00;;
8502;SDS011;4289;48.664;12.700;2023-02-22T09:57:39;0.10;;;0.10;;
8502;SDS011;4289;48.664;12.700;2023-02-22T10:01:06;0.10;;;0.10;;
8502;SDS011;4289;48.664;12.700;2023-02-22T10:04:39;0.10;;;0.10;;
8502;SDS011;4289;48.664;12.700;2023-02-22T10:08:04;0.10;;;0.10;;
8502;SDS011;4289;48.664;12.700;2023-02-22T10:11:39;0.10;;;0.10;;
8502;SDS011;4289;48.664;12.700;2023-02-22T10:19:07;0.00;;;0.00;;
8502;SDS011;4289;48.664;12.700;2023-02-22T10:22:38;0.10;;;0.10;;
8502;SDS011;4289;48.664;12.700;2023-02-22T10:26:11;0.10;;;0.10;;
8502;SDS011;4289;48.664;12.700;2023-02-22T10:29:36;0.03;;;0.03;;
8502;SDS011;4289;48.664;12.700;2023-02-22T10:33:04;0.10;;;0.10;;
8502;SDS011;4289;48.664;12.700;2023-02-22T10:36:29;0.10;;;0.10;;
8502;SDS011;4289;48.664;12.700;2023-02-22T10:39:58;0.10;;;0.10;;
8502;SDS011;4289;48.664;12.700;2023-02-22T10:43:36;0.00;;;0.00;;
8502;SDS011;4289;48.664;12.700;2023-02-22T10:47:00;0.10;;;0.10;;
8502;SDS011;4289;48.664;12.700;2023-02-22T10:50:26;0.03;;;0.03;;
8502;SDS011;4289;48.664;12.700;2023-02-22T10:53:54;0.00;;;0.00;;
8502;SDS011;4289;48.664;12.700;2023-02-22T10:57:20;0.00;;;0.00;;
8502;SDS011;4289;48.664;12.700;2023-02-22T11:00:44;0.00;;;0.00;;
8502;SDS011;4289;48.664;12.700;2023-02-22T11:04:09;0.10;;;0.10;;
8502;SDS011;4289;48.664;12.700;2023-02-22T11:07:35;0.00;;;0.00;;
8502;SDS011;4289;48.664;12.700;2023-02-22T11:10:59;0.00;;;0.00;;
8502;SDS011;4289;48.664;12.700;2023-02-22T11:14:24;0.00;;;0.00;;
8502;SDS011;4289;48.664;12.700;2023-02-22T11:17:50;0.00;;;0.00;;
8502;SDS011;4289;48.664;12.700;2023-02-22T11:21:14;0.00;;;0.00;;
8502;SDS011;4289;48.664;12.700;2023-02-22T11:24:45;0.00;;;0.00;;
8502;SDS011;4289;48.664;12.700;2023-02-22T11:28:11;0.00;;;0.00;;
8502;SDS011;4289;48.664;12.700;2023-02-22T11:31:40;0.00;;;0.00;;
8502;SDS011;4289;48.664;12.700;2023-02-22T11:35:16;0.00;;;0.00;;
8502;SDS011;4289;48.664;12.700;2023-02-22T11:38:41;0.00;;;0.00;;
8502;SDS011;4289;48.664;12.700;2023-02-22T11:42:21;0.00;;;0.00;;
8502;SDS011;4289;48.664;12.700;2023-02-22T11:45:55;0.03;;;0.03;;
8502;SDS011;4289;48.664;12.700;2023-02-22T11:49:22;0.00;;;0.00;;
8502;SDS011;4289;48.664;12.700;2023-02-22T11:52:45;0.00;;;0.00;;
8502;SDS011;4289;48.664;12.700;2023-02-22T11:56:12;0.00;;;0.00;;
8502;SDS011;4289;48.664;12.700;2023-02-22T11:59:40;0.00;;;0.00;;
8502;SDS011;4289;48.664;12.700;2023-02-22T12:03:23;0.00;;;0.00;;
8502;SDS011;4289;48.664;12.700;2023-02-22T12:06:55;0.10;;;0.10;;
8502;SDS011;4289;48.664;12.700;2023-02-22T12:10:32;0.10;;;0.10;;
8502;SDS011;4289;48.664;12.700;2023-02-22T12:14:09;0.00;;;0.00;;
8502;SDS011;4289;48.664;12.700;2023-02-22T12:17:54;0.00;;;0.00;;
8502;SDS011;4289;48.664;12.700;2023-02-22T12:21:21;0.00;;;0.00;;
8502;SDS011;4289;48.664;12.700;2023-02-22T12:24:46;0.00;;;0.00;;
8502;SDS011;4289;48.664;12.700;2023-02-22T12:28:14;0.00;;;0.00;;
8502;SDS011;4289;48.664;12.700;2023-02-22T12:31:39;0.00;;;0.00;;
8502;SDS011;4289;48.664;12.700;2023-02-22T12:35:08;0.00;;;0.00;;
8502;SDS011;4289;48.664;12.700;2023-02-22T12:38:34;0.00;;;0.00;;
8502;SDS011;4289;48.664;12.700;2023-02-22T12:42:00;0.00;;;0.00;;
8502;SDS011;4289;48.664;12.700;2023-02-22T12:45:27;0.00;;;0.00;;
8502;SDS011;4289;48.664;12.700;2023-02-22T12:48:53;0.10;;;0.10;;
8502;SDS011;4289;48.664;12.700;2023-02-22T12:52:24;0.00;;;0.00;;
8502;SDS011;4289;48.664;12.700;2023-02-22T12:55:54;0.00;;;0.00;;
8502;SDS011;4289;48.664;12.700;2023-02-22T12:59:21;0.00;;;0.00;;
8502;SDS011;4289;48.664;12.700;2023-02-22T13:02:52;0.00;;;0.00;;
8502;SDS011;4289;48.664;12.700;2023-02-22T13:06:21;0.07;;;0.07;;
8502;SDS011;4289;48.664;12.700;2023-02-22T13:09:53;0.00;;;0.00;;
8502;SDS011;4289;48.664;12.700;2023-02-22T13:13:28;0.00;;;0.00;;
8502;SDS011;4289;48.664;12.700;2023-02-22T13:16:56;0.00;;;0.00;;
8502;SDS011;4289;48.664;12.700;2023-02-22T13:20:25;0.00;;;0.00;;
8502;SDS011;4289;48.664;12.700;2023-02-22T13:23:52;0.00;;;0.00;;
8502;SDS011;4289;48.664;12.700;2023-02-22T13:27:24;0.00;;;0.00;;
8502;SDS011;4289;48.664;12.700;2023-02-22T13:30:55;0.00;;;0.00;;
8502;SDS011;4289;48.664;12.700;2023-02-22T13:38:22;0.00;;;0.00;;
8502;SDS011;4289;48.664;12.700;2023-02-22T13:42:30;0.00;;;0.00;;
8502;SDS011;4289;48.664;12.700;2023-02-22T13:46:15;0.05;;;0.05;;
8502;SDS011;4289;48.664;12.700;2023-02-22T13:49:54;0.00;;;0.00;;
8502;SDS011;4289;48.664;12.700;2023-02-22T13:53:31;0.00;;;0.00;;
8502;SDS011;4289;48.664;12.700;2023-02-22T13:57:02;0.00;;;0.00;;
8502;SDS011;4289;48.664;12.700;2023-02-22T14:00:44;0.00;;;0.00;;
8502;SDS011;4289;48.664;12.700;2023-02-22T14:07:59;0.03;;;0.03;;
8502;SDS011;4289;48.664;12.700;2023-02-22T14:15:18;0.00;;;0.00;;
8502;SDS011;4289;48.664;12.700;2023-02-22T14:18:43;0.00;;;0.00;;
8502;SDS011;4289;48.664;12.700;2023-02-22T14:22:08;0.00;;;0.00;;
8502;SDS011;4289;48.664;12.700;2023-02-22T14:25:41;0.00;;;0.00;;
8502;SDS011;4289;48.664;12.700;2023-02-22T14:29:13;0.00;;;0.00;;
8502;SDS011;4289;48.664;12.700;2023-02-22T14:32:37;0.00;;;0.00;;
8502;SDS011;4289;48.664;12.700;2023-02-22T14:36:01;0.00;;;0.00;;
8502;SDS011;4289;48.664;12.700;2023-02-22T14:39:26;0.08;;;0.08;;
8502;SDS011;4289;48.664;12.700;2023-02-22T14:42:57;0.10;;;0.10;;
8502;SDS011;4289;48.664;12.700;2023-02-22T14:46:21;0.08;;;0.08;;
8502;SDS011;4289;48.664;12.700;2023-02-22T14:49:47;0.10;;;0.10;;
8502;SDS011;4289;48.664;12.700;2023-02-22T14:53:35;0.03;;;0.03;;
8502;SDS011;4289;48.664;12.700;2023-02-22T14:57:02;0.03;;;0.03;;
8502;SDS011;4289;48.664;12.700;2023-02-22T15:00:37;0.00;;;0.00;;
8502;SDS011;4289;48.664;12.700;2023-02-22T15:04:15;0.10;;;0.10;;
8502;SDS011;4289;48.664;12.700;2023-02-22T15:07:38;0.00;;;0.00;;
8502;SDS011;4289;48.664;12.700;2023-02-22T15:11:18;0.00;;;0.00;;
8502;SDS011;4289;48.664;12.700;2023-02-22T15:14:41;0.00;;;0.00;;
8502;SDS011;4289;48.664;12.700;2023-02-22T15:18:11;0.00;;;0.00;;
8502;SDS011;4289;48.664;12.700;2023-02-22T15:21:43;0.00;;;0.00;;
8502;SDS011;4289;48.664;12.700;2023-02-22T15:25:09;0.05;;;0.05;;
8502;SDS011;4289;48.664;12.700;2023-02-22T15:28:36;0.00;;;0.00;;
8502;SDS011;4289;48.664;12.700;2023-02-22T15:31:58;0.00;;;0.00;;
8502;SDS011;4289;48.664;12.700;2023-02-22T15:35:24;0.00;;;0.00;;
8502;SDS011;4289;48.664;12.700;2023-02-22T15:38:48;0.00;;;0.00;;
8502;SDS011;4289;48.664;12.700;2023-02-22T15:42:12;0.00;;;0.00;;
8502;SDS011;4289;48.664;12.700;2023-02-22T15:45:45;0.00;;;0.00;;
8502;SDS011;4289;48.664;12.700;2023-02-22T15:49:17;0.00;;;0.00;;
8502;SDS011;4289;48.664;12.700;2023-02-22T15:52:45;0.00;;;0.00;;
8502;SDS011;4289;48.664;12.700;2023-02-22T15:56:13;0.00;;;0.00;;
8502;SDS011;4289;48.664;12.700;2023-02-22T15:59:42;0.00;;;0.00;;
8502;SDS011;4289;48.664;12.700;2023-02-22T16:03:08;0.00;;;0.00;;
8502;SDS011;4289;48.664;12.700;2023-02-22T16:06:35;0.00;;;0.00;;
8502;SDS011;4289;48.664;12.700;2023-02-22T16:09:59;0.00;;;0.00;;
8502;SDS011;4289;48.664;12.700;2023-02-22T16:13:28;0.00;;;0.00;;
8502;SDS011;4289;48.664;12.700;2023-02-22T16:20:36;0.00;;;0.00;;
8502;SDS011;4289;48.664;12.700;2023-02-22T16:23:59;0.00;;;0.00;;
8502;SDS011;4289;48.664;12.700;2023-02-22T16:27:22;0.00;;;0.00;;
8502;SDS011;4289;48.664;12.700;2023-02-22T16:30:45;0.00;;;0.00;;
8502;SDS011;4289;48.664;12.700;2023-02-22T16:34:17;0.00;;;0.00;;
8502;SDS011;4289;48.664;12.700;2023-02-22T16:37:41;0.00;;;0.00;;
8502;SDS011;4289;48.664;12.700;2023-02-22T16:41:04;0.00;;;0.00;;
8502;SDS011;4289;48.664;12.700;2023-02-22T16:44:27;0.00;;;0.00;;
8502;SDS011;4289;48.664;12.700;2023-02-22T16:47:50;0.00;;;0.00;;
8502;SDS011;4289;48.664;12.700;2023-02-22T16:51:17;0.00;;;0.00;;
8502;SDS011;4289;48.664;12.700;2023-02-22T16:54:43;0.00;;;0.00;;
8502;SDS011;4289;48.664;12.700;2023-02-22T16:58:06;0.00;;;0.00;;
8502;SDS011;4289;48.664;12.700;2023-02-22T17:01:32;0.00;;;0.00;;
8502;SDS011;4289;48.664;12.700;2023-02-22T17:04:54;0.00;;;0.00;;
8502;SDS011;4289;48.664;12.700;2023-02-22T17:08:17;0.00;;;0.00;;
8502;SDS011;4289;48.664;12.700;2023-02-22T17:11:41;0.00;;;0.00;;
8502;SDS011;4289;48.664;12.700;2023-02-22T17:15:04;0.00;;;0.00;;
8502;SDS011;4289;48.664;12.700;2023-02-22T17:18:27;0.00;;;0.00;;
8502;SDS011;4289;48.664;12.700;2023-02-22T17:21:53;0.10;;;0.10;;
8502;SDS011;4289;48.664;12.700;2023-02-22T17:25:16;0.00;;;0.00;;
8502;SDS011;4289;48.664;12.700;2023-02-22T17:28:42;0.00;;;0.00;;
8502;SDS011;4289;48.664;12.700;2023-02-22T17:32:05;0.00;;;0.00;;
8502;SDS011;4289;48.664;12.700;2023-02-22T17:35:28;0.00;;;0.00;;
8502;SDS011;4289;48.664;12.700;2023-02-22T17:38:52;0.00;;;0.00;;
8502;SDS011;4289;48.664;12.700;2023-02-22T17:42:14;0.00;;;0.00;;
8502;SDS011;4289;48.664;12.700;2023-02-22T17:45:38;0.00;;;0.00;;
8502;SDS011;4289;48.664;12.700;2023-02-22T17:49:01;0.00;;;0.00;;
8502;SDS011;4289;48.664;12.700;2023-02-22T17:52:24;0.00;;;0.00;;
8502;SDS011;4289;48.664;12.700;2023-02-22T17:55:49;0.00;;;0.00;;
8502;SDS011;4289;48.664;12.700;2023-02-22T17:59:11;0.00;;;0.00;;
8502;SDS011;4289;48.664;12.700;2023-02-22T18:02:36;0.00;;;0.00;;
8502;SDS011;4289;48.664;12.700;2023-02-22T18:05:59;0.00;;;0.00;;
8502;SDS011;4289;48.664;12.700;2023-02-22T18:09:21;0.00;;;0.00;;
8502;SDS011;4289;48.664;12.700;2023-02-22T18:12:44;0.00;;;0.00;;
8502;SDS011;4289;48.664;12.700;2023-02-22T18:16:07;0.03;;;0.03;;
8502;SDS011;4289;48.664;12.700;2023-02-22T18:19:31;0.10;;;0.10;;
8502;SDS011;4289;48.664;12.700;2023-02-22T18:22:54;0.00;;;0.00;;
8502;SDS011;4289;48.664;12.700;2023-02-22T18:26:18;0.00;;;0.00;;
8502;SDS011;4289;48.664;12.700;2023-02-22T18:29:41;0.00;;;0.00;;
8502;SDS011;4289;48.664;12.700;2023-02-22T18:33:04;0.00;;;0.00;;
8502;SDS011;4289;48.664;12.700;2023-02-22T18:36:31;0.00;;;0.00;;
8502;SDS011;4289;48.664;12.700;2023-02-22T18:39:53;0.00;;;0.00;;
8502;SDS011;4289;48.664;12.700;2023-02-22T18:43:16;0.00;;;0.00;;
8502;SDS011;4289;48.664;12.700;2023-02-22T18:46:39;0.00;;;0.00;;
8502;SDS011;4289;48.664;12.700;2023-02-22T18:50:02;0.10;;;0.10;;
8502;SDS011;4289;48.664;12.700;2023-02-22T18:53:27;0.03;;;0.03;;
8502;SDS011;4289;48.664;12.700;2023-02-22T18:56:50;0.00;;;0.00;;
8502;SDS011;4289;48.664;12.700;2023-02-22T19:00:13;0.00;;;0.00;;
8502;SDS011;4289;48.664;12.700;2023-02-22T19:03:37;0.10;;;0.10;;
8502;SDS011;4289;48.664;12.700;2023-02-22T19:06:59;0.00;;;0.00;;
8502;SDS011;4289;48.664;12.700;2023-02-22T19:10:23;0.00;;;0.00;;
8502;SDS011;4289;48.664;12.700;2023-02-22T19:13:47;0.00;;;0.00;;
8502;SDS011;4289;48.664;12.700;2023-02-22T19:17:10;0.00;;;0.00;;
8502;SDS011;4289;48.664;12.700;2023-02-22T19:20:35;0.10;;;0.10;;
8502;SDS011;4289;48.664;12.700;2023-02-22T19:23:58;0.03;;;0.03;;
8502;SDS011;4289;48.664;12.700;2023-02-22T19:27:22;0.10;;;0.10;;
8502;SDS011;4289;48.664;12.700;2023-02-22T19:30:49;0.00;;;0.00;;
8502;SDS011;4289;48.664;12.700;2023-02-22T19:34:11;0.00;;;0.00;;
8502;SDS011;4289;48.664;12.700;2023-02-22T19:37:34;0.10;;;0.10;;
8502;SDS011;4289;48.664;12.700;2023-02-22T19:40:57;0.00;;;0.00;;
8502;SDS011;4289;48.664;12.700;2023-02-22T19:44:21;0.00;;;0.00;;
8502;SDS011;4289;48.664;12.700;2023-02-22T19:47:44;0.00;;;0.00;;
8502;SDS011;4289;48.664;12.700;2023-02-22T19:51:09;0.10;;;0.10;;
8502;SDS011;4289;48.664;12.700;2023-02-22T19:54:33;0.10;;;0.10;;
8502;SDS011;4289;48.664;12.700;2023-02-22T19:57:55;0.00;;;0.00;;
8502;SDS011;4289;48.664;12.700;2023-02-22T20:01:19;0.10;;;0.10;;
8502;SDS011;4289;48.664;12.700;2023-02-22T20:04:43;0.10;;;0.10;;
8502;SDS011;4289;48.664;12.700;2023-02-22T20:08:09;0.10;;;0.10;;
8502;SDS011;4289;48.664;12.700;2023-02-22T20:11:31;0.10;;;0.10;;
8502;SDS011;4289;48.664;12.700;2023-02-22T20:14:55;0.00;;;0.00;;
8502;SDS011;4289;48.664;12.700;2023-02-22T20:18:20;0.10;;;0.10;;
8502;SDS011;4289;48.664;12.700;2023-02-22T20:21:43;0.03;;;0.03;;
8502;SDS011;4289;48.664;12.700;2023-02-22T20:25:06;0.00;;;0.00;;
8502;SDS011;4289;48.664;12.700;2023-02-22T20:28:29;0.00;;;0.00;;
8502;SDS011;4289;48.664;12.700;2023-02-22T20:31:53;0.00;;;0.00;;
8502;SDS011;4289;48.664;12.700;2023-02-22T20:35:18;0.00;;;0.00;;
8502;SDS011;4289;48.664;12.700;2023-02-22T20:38:41;0.00;;;0.00;;
8502;SDS011;4289;48.664;12.700;2023-02-22T20:42:06;0.00;;;0.00;;
8502;SDS011;4289;48.664;12.700;2023-02-22T20:45:33;0.00;;;0.00;;
8502;SDS011;4289;48.664;12.700;2023-02-22T20:48:56;0.00;;;0.00;;
8502;SDS011;4289;48.664;12.700;2023-02-22T20:52:21;0.00;;;0.00;;
8502;SDS011;4289;48.664;12.700;2023-02-22T20:55:46;0.10;;;0.10;;
8502;SDS011;4289;48.664;12.700;2023-02-22T20:59:10;0.10;;;0.10;;
8502;SDS011;4289;48.664;12.700;2023-02-22T21:02:32;0.00;;;0.00;;
8502;SDS011;4289;48.664;12.700;2023-02-22T21:05:55;0.00;;;0.00;;
8502;SDS011;4289;48.664;12.700;2023-02-22T21:09:19;0.10;;;0.10;;
8502;SDS011;4289;48.664;12.700;2023-02-22T21:12:42;0.00;;;0.00;;
8502;SDS011;4289;48.664;12.700;2023-02-22T21:16:06;0.00;;;0.00;;
8502;SDS011;4289;48.664;12.700;2023-02-22T21:19:30;0.00;;;0.00;;
8502;SDS011;4289;48.664;12.700;2023-02-22T21:22:52;0.03;;;0.03;;
8502;SDS011;4289;48.664;12.700;2023-02-22T21:26:16;0.07;;;0.07;;